• Join FlightAware (Why Join?)
  • Login
  • US Flag 
02:19PM EDT


 

Airport Tracker/Info


-or-


 

Live Flight TrackerFlight Track Log ✈ N870DC ✈ 08-May-2013 ✈ KMBS - KPHL

Flight Track Log - Related Links

Times and Time Zones

All times are in EDT time to prevent confusion due to time zone crossing. See the N870DC flight status page for this flight to view local times or setup timezone preferences in your user account.

Time Position Orientation Groundspeed Altitude Reporting Facility
EDT Latitude Longitude Course Direction KTS MPH feet Rate Location/Type
02:33PM 43.4547 -83.8950 150° Southeast 272 313 8,000  Level Cleveland Center
02:34PM 43.4011 -83.8006 128° Southeast 300 345 10,200 2,520 Climbing Cleveland Center
02:35PM 43.3417 -83.6947 128° Southeast 329 379 13,100 2,880 Climbing Cleveland Center
02:36PM 43.2839 -83.5892 127° Southeast 342 394 16,000 2,640 Climbing Cleveland Center
02:37PM 43.2373 -83.2568 127° Southeast  Level Estimated
02:37PM 43.2181 -83.4778 129° Southeast 362 417 18,400  Level Cleveland Center
02:38PM 43.1414 -83.1796 150° Southeast  Level FlightAware Approximate
02:38PM 43.1542 -83.3636 127° Southeast 368 423 20,900  Level Cleveland Center
02:39PM 43.0858 -83.2469 129° Southeast 385 443 22,900 2,040 Climbing Cleveland Center
02:40PM 43.0156 -83.1303 129° Southeast 391 450 25,000 1,800 Climbing Cleveland Center
02:41PM 42.9453 -83.0053 127° Southeast 397 457 26,600 1,560 Climbing Cleveland Center
02:42PM 42.8728 -82.8864 130° Southeast 402 463 28,200 1,620 Climbing Cleveland Center
02:43PM 42.8003 -82.7619 128° Southeast 418 481 29,900 1,380 Climbing Cleveland Center
02:44PM 42.7294 -82.6381 128° Southeast 418 481 31,000 540 Climbing Cleveland Center
02:45PM 42.6544 -82.5114 129° Southeast 418 481 31,000  Level Cleveland Center
02:46PM 42.5772 -82.3878 130° Southeast 418 481 31,000  Level Cleveland Center
02:47PM 42.5022 -82.2617 129° Southeast 423 487 31,000 60 Level Cleveland Center
02:48PM 42.4411 -82.1617 130° Southeast 428 493 31,200 900 Climbing Cleveland Center
02:49PM 42.3511 -82.0161 130° Southeast 428 493 32,900 900 Climbing Cleveland Center
02:50PM 42.2797 -81.8967 129° Southeast 422 486 33,000  Climbing Cleveland Center
02:51PM 42.2081 -81.7800 130° Southeast 422 486 33,000  Level Cleveland Center
02:52PM 42.1383 -81.6611 128° Southeast 412 474 33,000 600 Level Cleveland Center
02:53PM 42.0683 -81.5481 130° Southeast 402 463 34,300 960 Climbing Cleveland Center
02:54PM 41.9964 -81.4297 129° Southeast 403 464 35,000 300 Climbing Cleveland Center
02:55PM 41.9283 -81.3228 131° Southeast 414 476 35,000  Level Cleveland Center
02:56PM 41.8519 -81.2019 130° Southeast 422 486 35,000  Level Cleveland Center
02:57PM 41.7756 -81.0786 130° Southeast 430 495 35,000  Level Cleveland Center
02:58PM 41.6989 -80.9558 130° Southeast 425 489 35,000  Level Cleveland Center
02:59PM 41.6136 -80.8219 130° Southeast 430 495 35,000  Level Cleveland Center
03:00PM 41.5347 -80.6942 129° Southeast 430 495 35,000  Level Cleveland Center
03:01PM 41.4533 -80.5692 131° Southeast 440 506 35,000  Level Cleveland Center
03:02PM 41.3719 -80.4419 130° Southeast 440 506 35,000  Level Cleveland Center
03:03PM 41.2947 -80.3150 129° Southeast 445 512 35,000  Level Cleveland Center
03:04PM 41.2131 -80.1911 131° Southeast 445 512 35,000  Level Cleveland Center
03:05PM 41.1333 -80.0647 130° Southeast 445 512 35,000  Level Cleveland Center
03:06PM 41.0536 -79.9417 131° Southeast 445 512 35,000  Level Cleveland Center
03:07PM 40.9714 -79.8214 132° Southeast 445 512 35,000  Level Cleveland Center
03:08PM 40.8956 -79.7014 130° Southeast 439 505 35,000  Level Cleveland Center
03:09PM 40.8153 -79.5789 131° Southeast 439 505 35,000  Level Cleveland Center
03:10PM 40.7369 -79.4594 131° Southeast 439 505 35,000  Level Cleveland Center
03:11PM 40.6567 -79.3378 131° Southeast 439 505 35,000  Level Cleveland Center
03:12PM 40.5719 -79.2192 133° Southeast 439 505 35,000  Level Cleveland Center
03:13PM 40.5158 -79.0783 118° Southeast 439 505 35,000  Level Cleveland Center
03:14PM 40.4950 -78.9178 100° East 429 494 35,000  Level Cleveland Center
03:15PM 40.4800 -78.7569 97° East 429 494 35,000 -1,080 Level Cleveland Center
03:17PM 40.4494 -78.4522 97° East 443 510 32,000 -1,920 Descending New York Center
03:18PM 40.4344 -78.2978 97° East 436 502 29,400 -2,580 Descending New York Center
03:19PM 40.4206 -78.1517 97° East 415 478 26,900 -2,160 Descending New York Center
03:20PM 40.4042 -78.0108 99° East 402 463 25,100 -960 Descending New York Center
03:21PM 40.3903 -77.8647 97° East 402 463 25,000 -540 Descending New York Center
03:22PM 40.3694 -77.7211 101° East 392 451 24,100 -960 Descending New York Center
03:23PM 40.3506 -77.5828 100° East 392 451 23,200 -960 Descending New York Center
03:24PM 40.3294 -77.4392 101° East 392 451 22,200 -1,020 Descending New York Center
03:25PM 40.3100 -77.3011 100° East 392 451 21,200 -1,080 Descending New York Center
03:26PM 40.2906 -77.1658 101° East 386 444 20,100 -1,080 Descending New York Center
03:27PM 40.2703 -77.0361 102° East 375 432 19,100 -960 Descending New York Center
03:28PM 40.2522 -76.9039 100° East 369 425 18,200 -960 Descending New York Center
03:29PM 40.2358 -76.7772 100° East 359 413 17,200 -1,380 Descending New York Center
03:30PM 40.2169 -76.6533 101° East 359 413 15,600 -1,800 Descending New York Center
03:31PM 40.2019 -76.5353 99° East 344 396 13,700 -1,740 Descending New York Center
03:32PM 40.1844 -76.4222 101° East 323 372 12,100 -1,260 Descending New York Center
03:33PM 40.1669 -76.3069 101° East 317 365 11,200 -600 Descending New York Center
03:34PM 40.1475 -76.1911 102° East 317 365 11,000 -420 Descending New York Center
03:35PM 40.1297 -76.0783 102° East 322 371 10,400 -600 Descending New York Center
03:36PM 40.1172 -75.9797 99° East 291 335 9,900 -840 Descending New York Center
03:37PM 40.1008 -75.8781 102° East 281 323 8,800 -960 Descending New York Center
03:38PM 40.0864 -75.7819 101° East 281 323 8,000 -900 Descending New York Center
03:39PM 40.0903 -75.6847 87° East 271 312 7,100 -900 Descending New York Center
03:40PM 40.1233 -75.5947 64° Northeast 271 312 6,200 -600 Descending New York Center
03:41PM 40.1461 -75.4958 73° East 271 312 6,000 -120 Descending New York Center
03:42PM 40.1561 -75.3986 82° East 271 312 6,000  Level New York Center
03:43PM 40.1642 -75.2961 84° East 276 318 6,000  Level New York Center
03:44PM 40.1222 -75.2497 140° Southeast 219 252 6,000  Level New York Center
03:44PM 40.0833 -75.2333 162° South 194 223 6,000  Level Philadelphia TRACON
03:45PM 40.0333 -75.2000 153° Southeast 196 226 6,000  Level Philadelphia TRACON
03:46PM 40.0000 -75.1667 143° Southeast 203 234 6,000  Level Philadelphia TRACON
03:47PM 40.0167 -75.1000 72° East 216 249 6,000 -480 Level Philadelphia TRACON
03:48PM 40.0333 -75.0167 75° East 212 244 5,100 -480 Descending Philadelphia TRACON
03:49PM 40.0500 -74.9500 72° East 209 241 5,000 -60 Descending Philadelphia TRACON
03:50PM 40.0167 -74.8833 123° Southeast 193 222 5,000 -540 Level Philadelphia TRACON
03:51PM 39.9833 -74.8500 143° Southeast 194 223 4,000 -600 Descending Philadelphia TRACON
03:52PM 39.9333 -74.9000 217° Southwest 204 235 3,900 -600 Descending Philadelphia TRACON
03:53PM 39.9333 -74.9667 270° West 192 221 2,900 -480 Descending Philadelphia TRACON
03:54PM 39.9167 -75.0333 252° West 186 214 3,000 -480 Climbing Philadelphia TRACON
03:55PM 39.9000 -75.1000 252° West 185 213 2,000 -900 Descending Philadelphia TRACON
03:56PM 39.8833 -75.1500 247° West 143 165 1,300 -840 Descending Philadelphia TRACON
03:57PM 39.8833 -75.2000 270° West 140 161 500 -840 Descending Philadelphia TRACON
04:00PM 39.8667 -75.2333 113° Southeast  Level FlightAware Approximate